createdAt,value
2023-05-23T00:01:50.830Z,43.99
2023-05-23T00:04:18.915Z,44.31
2023-05-23T00:06:50.599Z,43.87
2023-05-23T00:09:17.830Z,44.14
2023-05-23T00:11:45.409Z,44.00
2023-05-23T00:14:16.948Z,44.26
2023-05-23T00:16:46.321Z,44.23
2023-05-23T00:19:17.192Z,44.74
2023-05-23T00:21:50.789Z,44.08
2023-05-23T00:24:18.693Z,44.42
2023-05-23T00:26:46.885Z,44.11
2023-05-23T00:29:16.677Z,44.75
2023-05-23T00:31:47.704Z,44.30
2023-05-23T00:34:17.559Z,44.32
2023-05-23T00:36:47.566Z,44.93
2023-05-23T00:39:19.551Z,44.42
2023-05-23T00:41:51.876Z,44.96
2023-05-23T00:44:20.320Z,45.03
2023-05-23T00:46:53.634Z,45.01
2023-05-23T00:49:21.472Z,45.09
2023-05-23T00:51:52.221Z,45.01
2023-05-23T00:54:25.380Z,44.35
2023-05-23T00:56:53.208Z,45.31
2023-05-23T00:59:21.362Z,44.75
2023-05-23T01:01:51.109Z,45.60
2023-05-23T01:04:19.967Z,45.45
2023-05-23T01:06:49.069Z,45.18
2023-05-23T01:09:17.967Z,44.81
2023-05-23T01:12:33.043Z,43.04
2023-05-23T01:15:08.569Z,43.92
2023-05-23T01:17:53.127Z,43.36
2023-05-23T01:20:30.265Z,44.88
2023-05-23T01:23:02.703Z,45.27
2023-05-23T01:26:11.824Z,43.19
2023-05-23T01:28:48.094Z,44.75
2023-05-23T01:31:17.639Z,45.79
2023-05-23T01:33:46.293Z,45.17
2023-05-23T01:36:15.218Z,45.67
2023-05-23T01:38:42.968Z,46.14
2023-05-23T01:41:10.116Z,46.15
2023-05-23T01:43:38.791Z,46.12
2023-05-23T01:46:07.600Z,46.30
2023-05-23T01:48:36.350Z,45.94
2023-05-23T01:51:04.988Z,45.64
2023-05-23T01:53:32.980Z,46.12
2023-05-23T01:56:03.346Z,45.86
2023-05-23T01:58:30.548Z,46.51
2023-05-23T02:00:57.952Z,46.19
2023-05-23T02:03:25.189Z,46.14
2023-05-23T02:05:52.339Z,47.14
2023-05-23T02:08:19.374Z,46.32
2023-05-23T02:10:46.395Z,46.11
2023-05-23T02:13:13.487Z,46.25
2023-05-23T02:15:40.958Z,46.37
2023-05-23T02:18:08.830Z,46.59
2023-05-23T02:20:40.670Z,46.40
2023-05-23T02:23:08.627Z,47.21
2023-05-23T02:25:37.365Z,46.72
2023-05-23T02:28:07.192Z,47.28
2023-05-23T02:30:34.284Z,46.77
2023-05-23T02:33:06.631Z,46.88
2023-05-23T02:35:34.167Z,46.74
2023-05-23T02:38:01.330Z,46.89
2023-05-23T02:40:28.395Z,47.74
2023-05-23T02:42:57.302Z,46.87
2023-05-23T02:45:24.721Z,47.88
2023-05-23T02:47:51.785Z,47.10
2023-05-23T02:50:18.903Z,48.00
2023-05-23T02:52:46.035Z,47.55
2023-05-23T02:55:13.109Z,47.37
2023-05-23T02:57:44.367Z,47.82
2023-05-23T03:00:12.213Z,47.91
2023-05-23T03:02:39.664Z,48.09
2023-05-23T03:05:07.618Z,48.16
2023-05-23T03:07:34.773Z,48.41
2023-05-23T03:10:02.118Z,48.25
2023-05-23T03:12:29.531Z,47.83
2023-05-23T03:14:56.817Z,48.35
2023-05-23T03:17:25.977Z,48.26
2023-05-23T03:19:53.273Z,48.31
2023-05-23T03:22:20.782Z,48.26
2023-05-23T03:24:48.024Z,49.19
2023-05-23T03:27:15.284Z,49.11
2023-05-23T03:29:42.541Z,48.29
2023-05-23T03:32:11.996Z,48.49
2023-05-23T03:34:39.356Z,48.69
2023-05-23T03:37:06.563Z,48.49
2023-05-23T03:39:33.983Z,48.28
2023-05-23T03:42:01.262Z,48.45
2023-05-23T03:44:28.759Z,48.56
2023-05-23T03:46:56.834Z,49.06
2023-05-23T03:49:24.034Z,49.22
2023-05-23T03:51:51.359Z,49.13
2023-05-23T03:54:21.364Z,48.39
2023-05-23T03:56:48.626Z,49.28
2023-05-23T03:59:15.933Z,48.86
2023-05-23T04:01:43.244Z,49.38
2023-05-23T04:04:10.533Z,48.58
2023-05-23T04:06:38.625Z,49.31
2023-05-23T04:09:06.660Z,49.55
2023-05-23T04:11:38.315Z,49.80
2023-05-23T04:14:05.553Z,49.93
2023-05-23T04:16:33.499Z,49.65
2023-05-23T04:19:04.807Z,49.58
2023-05-23T04:21:32.987Z,48.82
2023-05-23T04:24:08.303Z,49.32
2023-05-23T04:26:36.427Z,48.93
2023-05-23T04:29:05.962Z,49.49
2023-05-23T04:31:34.262Z,49.81
2023-05-23T04:34:02.609Z,49.67
2023-05-23T04:36:30.503Z,49.28
2023-05-23T04:38:57.639Z,50.21
2023-05-23T04:41:24.799Z,49.87
2023-05-23T04:44:06.053Z,49.78
2023-05-23T04:46:57.173Z,49.47
2023-05-23T04:49:30.245Z,50.44
2023-05-23T04:51:57.261Z,49.93
2023-05-23T04:54:27.399Z,50.50
2023-05-23T04:56:55.623Z,50.62
2023-05-23T04:59:24.374Z,51.55
2023-05-23T05:01:51.482Z,50.55
2023-05-23T05:04:19.618Z,51.29
2023-05-23T05:06:48.521Z,51.01
2023-05-23T05:09:15.553Z,50.32
2023-05-23T05:11:43.871Z,50.36
2023-05-23T05:14:10.900Z,50.60
2023-05-23T05:16:38.194Z,51.16
2023-05-23T05:19:06.091Z,51.27
2023-05-23T05:21:33.165Z,50.87
2023-05-23T05:24:00.221Z,51.04
2023-05-23T05:26:28.032Z,51.25
2023-05-23T05:28:55.341Z,52.13
2023-05-23T05:31:22.593Z,51.75
2023-05-23T05:33:49.840Z,50.70
2023-05-23T05:36:16.989Z,51.83
2023-05-23T05:38:45.730Z,51.67
2023-05-23T05:41:13.336Z,51.63
2023-05-23T05:43:50.077Z,51.47
2023-05-23T05:46:17.146Z,52.02
2023-05-23T05:48:45.814Z,52.17
2023-05-23T05:51:13.825Z,51.56
2023-05-23T05:53:41.879Z,51.69
2023-05-23T05:56:09.305Z,52.37
2023-05-23T05:58:36.882Z,51.89
2023-05-23T06:01:08.205Z,51.48
2023-05-23T06:03:35.520Z,52.44
2023-05-23T06:06:02.725Z,52.15
2023-05-23T06:08:30.192Z,51.47
2023-05-23T06:10:57.202Z,51.42
2023-05-23T06:13:25.939Z,52.85
2023-05-23T06:15:54.487Z,52.14
2023-05-23T06:18:22.209Z,51.94
2023-05-23T06:20:51.021Z,51.71
2023-05-23T06:23:19.666Z,52.42
2023-05-23T06:25:47.722Z,52.08
2023-05-23T06:28:14.967Z,52.62
2023-05-23T06:30:42.322Z,52.94
2023-05-23T06:33:09.674Z,52.53
2023-05-23T06:35:36.743Z,52.78
2023-05-23T06:38:03.769Z,52.97
2023-05-23T06:40:30.792Z,53.17
2023-05-23T06:42:57.835Z,52.44
2023-05-23T06:45:35.078Z,52.05
2023-05-23T06:48:02.239Z,53.13
2023-05-23T06:50:31.281Z,52.42
2023-05-23T06:52:58.296Z,53.08
2023-05-23T06:55:25.864Z,52.92
2023-05-23T06:57:53.209Z,52.74
2023-05-23T07:00:21.829Z,52.33
2023-05-23T07:03:07.667Z,53.12
2023-05-23T07:05:37.418Z,52.93
2023-05-23T07:08:10.788Z,52.44
2023-05-23T07:10:41.567Z,53.15
2023-05-23T07:13:21.917Z,52.15
2023-05-23T07:15:48.931Z,51.79
2023-05-23T07:18:16.048Z,52.06
2023-05-23T07:20:43.752Z,53.15
2023-05-23T07:23:16.167Z,52.95
2023-05-23T07:25:53.759Z,52.37
2023-05-23T07:28:29.459Z,52.54
2023-05-23T07:30:58.255Z,52.77
2023-05-23T07:33:25.684Z,52.38
2023-05-23T07:36:00.829Z,52.25
2023-05-23T07:38:27.863Z,52.49
2023-05-23T07:41:03.148Z,52.68
2023-05-23T07:43:37.740Z,52.63
2023-05-23T07:46:04.941Z,52.16
2023-05-23T07:48:32.280Z,52.22
2023-05-23T07:50:59.609Z,52.58
2023-05-23T07:53:26.800Z,51.98
2023-05-23T07:55:54.013Z,52.46
2023-05-23T07:58:23.282Z,52.56
2023-05-23T08:00:52.635Z,52.41
2023-05-23T08:03:38.981Z,51.93
2023-05-23T08:06:11.933Z,51.97
2023-05-23T08:08:39.511Z,52.04
2023-05-23T08:11:28.757Z,51.85
2023-05-23T08:14:01.626Z,52.04
2023-05-23T08:16:44.431Z,52.18
2023-05-23T08:19:19.731Z,51.38
2023-05-23T08:21:47.345Z,52.33
2023-05-23T08:24:15.233Z,51.42
2023-05-23T08:26:43.462Z,51.78
2023-05-23T08:29:12.698Z,51.56
2023-05-23T08:31:41.360Z,51.51
2023-05-23T08:34:09.330Z,51.43
2023-05-23T08:36:39.731Z,51.33
2023-05-23T08:39:10.617Z,51.87
2023-05-23T08:41:44.589Z,51.57
2023-05-23T08:44:13.780Z,51.58
2023-05-23T08:46:49.853Z,51.38
2023-05-23T08:49:35.610Z,51.51
2023-05-23T08:52:03.792Z,50.87
2023-05-23T08:54:33.858Z,51.21
2023-05-23T08:57:02.178Z,51.13
2023-05-23T08:59:31.932Z,50.57
2023-05-23T09:02:00.686Z,50.35
2023-05-23T09:04:29.209Z,50.48
2023-05-23T09:07:01.191Z,50.18
2023-05-23T09:09:30.066Z,50.12
2023-05-23T09:11:59.754Z,50.08
2023-05-23T09:14:30.389Z,50.19
2023-05-23T09:17:05.420Z,49.95
2023-05-23T09:19:33.386Z,50.08
2023-05-23T09:22:13.325Z,50.05
2023-05-23T09:24:55.018Z,50.07
2023-05-23T09:27:22.706Z,49.88
2023-05-23T09:29:50.608Z,49.94
2023-05-23T09:32:21.003Z,50.02
2023-05-23T09:35:00.344Z,49.84
2023-05-23T09:37:36.289Z,50.03
2023-05-23T09:40:11.736Z,50.14
2023-05-23T09:42:47.094Z,50.10
2023-05-23T09:45:16.772Z,50.61
2023-05-23T09:47:52.092Z,50.50
2023-05-23T09:50:20.759Z,50.61
2023-05-23T09:52:48.142Z,50.11
2023-05-23T09:55:15.612Z,50.13
2023-05-23T09:57:44.258Z,49.66
2023-05-23T10:00:15.412Z,49.86
2023-05-23T10:03:25.205Z,49.42
2023-05-23T10:05:59.834Z,49.57
2023-05-23T10:08:43.243Z,49.36
2023-05-23T10:11:13.151Z,49.34
2023-05-23T10:13:53.153Z,49.48
2023-05-23T10:16:40.226Z,48.95
2023-05-23T10:19:28.723Z,48.69
2023-05-23T10:22:07.080Z,48.49
2023-05-23T10:24:35.622Z,48.71
2023-05-23T10:27:03.958Z,49.17
2023-05-23T10:29:33.788Z,48.55
2023-05-23T10:32:02.737Z,48.94
2023-05-23T10:34:59.679Z,49.13
2023-05-23T10:38:00.616Z,48.34
2023-05-23T10:40:43.071Z,48.85
2023-05-23T10:44:09.905Z,48.02
2023-05-23T10:46:57.444Z,48.25
2023-05-23T10:49:46.245Z,47.83
2023-05-23T10:52:23.706Z,47.74
2023-05-23T10:54:53.636Z,47.57
2023-05-23T10:57:23.246Z,47.87
2023-05-23T10:59:51.894Z,47.69
2023-05-23T11:02:25.405Z,48.03
2023-05-23T11:05:24.996Z,48.35
2023-05-23T11:08:16.171Z,48.22
2023-05-23T11:10:52.981Z,48.11
2023-05-23T11:13:23.695Z,48.03
2023-05-23T11:15:51.291Z,48.20
2023-05-23T11:18:27.879Z,47.65
2023-05-23T11:20:55.549Z,47.52
2023-05-23T11:23:24.091Z,47.25
2023-05-23T11:25:55.433Z,47.73
2023-05-23T11:28:24.076Z,47.33
2023-05-23T11:30:51.373Z,47.80
2023-05-23T11:33:18.667Z,47.58
2023-05-23T11:35:48.269Z,47.99
2023-05-23T11:38:19.507Z,47.75
2023-05-23T11:40:48.282Z,47.97
2023-05-23T11:43:17.718Z,48.05
2023-05-23T11:45:46.875Z,48.04
2023-05-23T11:48:17.087Z,47.81
2023-05-23T11:50:46.009Z,47.45
2023-05-23T11:53:17.353Z,47.40
2023-05-23T11:55:58.208Z,47.01
2023-05-23T11:58:37.211Z,46.67
2023-05-23T12:01:09.911Z,46.78
2023-05-23T12:03:47.625Z,46.58
2023-05-23T12:06:25.178Z,46.38
2023-05-23T12:08:52.763Z,46.18
2023-05-23T12:11:19.851Z,46.50
2023-05-23T12:13:46.954Z,46.71
2023-05-23T12:16:17.501Z,46.69
2023-05-23T12:18:44.556Z,46.79
2023-05-23T12:21:12.198Z,47.18
2023-05-23T12:23:40.383Z,47.43
2023-05-23T12:26:08.233Z,47.66
2023-05-23T12:28:45.217Z,48.02
2023-05-23T12:31:14.234Z,48.33
2023-05-23T12:33:44.526Z,48.65
2023-05-23T12:36:15.694Z,50.33
2023-05-23T12:38:45.511Z,49.48
2023-05-23T12:41:20.844Z,48.92
2023-05-23T12:43:52.673Z,48.00
2023-05-23T12:46:26.048Z,47.69
2023-05-23T12:48:54.391Z,46.09
2023-05-23T12:51:21.868Z,45.64
2023-05-23T12:53:48.962Z,45.07
2023-05-23T12:56:16.156Z,44.50
2023-05-23T12:58:43.750Z,44.50
2023-05-23T13:01:11.256Z,44.59
2023-05-23T13:03:38.461Z,44.62
2023-05-23T13:06:06.667Z,45.03
2023-05-23T13:08:33.651Z,45.42
2023-05-23T13:11:00.814Z,45.44
2023-05-23T13:13:27.802Z,45.27
2023-05-23T13:15:54.963Z,45.54
2023-05-23T13:18:22.058Z,45.39
2023-05-23T13:20:49.156Z,45.25
2023-05-23T13:23:16.420Z,45.28
2023-05-23T13:25:43.656Z,45.60
2023-05-23T13:28:10.933Z,45.94
2023-05-23T13:30:38.040Z,45.68
2023-05-23T13:33:05.191Z,45.70
2023-05-23T13:35:32.419Z,45.73
2023-05-23T13:37:59.553Z,45.93
2023-05-23T13:40:26.786Z,45.84
2023-05-23T13:42:54.165Z,46.66
2023-05-23T13:45:23.133Z,46.85
2023-05-23T13:47:50.385Z,47.03
2023-05-23T13:50:17.853Z,46.70
2023-05-23T13:52:48.199Z,46.39
2023-05-23T13:55:17.323Z,46.89
2023-05-23T13:57:44.927Z,46.62
2023-05-23T14:00:12.928Z,47.59
2023-05-23T14:02:40.074Z,46.13
2023-05-23T14:05:08.223Z,45.30
2023-05-23T14:07:35.439Z,45.50
2023-05-23T14:10:02.605Z,44.39
2023-05-23T14:12:29.622Z,44.21
2023-05-23T14:14:56.599Z,43.78
2023-05-23T14:17:23.962Z,42.99
2023-05-23T14:19:51.453Z,42.46
2023-05-23T14:22:18.474Z,42.20
2023-05-23T14:24:45.491Z,42.90
2023-05-23T14:27:12.674Z,43.01
2023-05-23T14:29:39.748Z,43.17
2023-05-23T14:32:07.031Z,43.22
2023-05-23T14:34:34.275Z,43.31
2023-05-23T14:37:01.458Z,43.53
2023-05-23T14:39:29.169Z,43.81
2023-05-23T14:41:56.557Z,44.15
2023-05-23T14:44:23.800Z,44.19
2023-05-23T14:46:50.861Z,44.08
2023-05-23T14:49:17.977Z,44.16
2023-05-23T14:51:50.374Z,44.28
2023-05-23T14:54:18.674Z,44.33
2023-05-23T14:56:46.061Z,44.77
2023-05-23T14:59:13.189Z,44.93
2023-05-23T15:01:41.027Z,44.60
2023-05-23T15:04:09.670Z,44.37
2023-05-23T15:06:39.078Z,43.15
2023-05-23T15:09:07.313Z,43.58
2023-05-23T15:11:35.009Z,43.78
2023-05-23T15:14:02.250Z,44.25
2023-05-23T15:16:32.949Z,43.95
2023-05-23T15:19:00.496Z,43.78
2023-05-23T15:21:28.141Z,43.81
2023-05-23T15:23:55.704Z,43.88
2023-05-23T15:26:23.796Z,43.77
2023-05-23T15:28:51.199Z,42.73
2023-05-23T15:31:18.368Z,42.91
2023-05-23T15:33:45.534Z,42.84
2023-05-23T15:36:15.474Z,43.70
2023-05-23T15:38:43.771Z,44.18
2023-05-23T15:41:16.592Z,44.67
2023-05-23T15:43:48.448Z,44.66
2023-05-23T15:46:15.640Z,44.41
2023-05-23T15:48:42.652Z,45.15
2023-05-23T15:51:09.757Z,45.00
2023-05-23T15:53:47.801Z,44.06
2023-05-23T15:56:23.831Z,44.03
2023-05-23T15:58:50.980Z,42.68
2023-05-23T16:01:20.709Z,41.57
2023-05-23T16:03:48.202Z,42.79
2023-05-23T16:06:15.518Z,41.11
2023-05-23T16:08:45.769Z,41.98
2023-05-23T16:11:12.824Z,41.67
2023-05-23T16:13:39.925Z,40.89
2023-05-23T16:16:07.016Z,40.63
2023-05-23T16:18:34.650Z,40.33
2023-05-23T16:21:01.811Z,40.28
2023-05-23T16:23:28.805Z,40.23
2023-05-23T16:25:55.863Z,39.48
2023-05-23T16:28:22.995Z,38.83
2023-05-23T16:30:50.874Z,39.04
2023-05-23T16:33:17.870Z,39.25
2023-05-23T16:35:44.855Z,39.00
2023-05-23T16:38:11.870Z,38.38
2023-05-23T16:40:39.024Z,38.05
2023-05-23T16:43:06.081Z,37.54
2023-05-23T16:45:33.215Z,36.76
2023-05-23T16:48:01.209Z,37.21
2023-05-23T16:50:28.311Z,37.31
2023-05-23T16:52:55.455Z,37.40
2023-05-23T16:55:22.784Z,37.75
2023-05-23T16:57:49.802Z,37.67
2023-05-23T17:00:17.286Z,37.98
2023-05-23T17:02:44.402Z,38.75
2023-05-23T17:05:11.570Z,38.39
2023-05-23T17:07:38.581Z,38.38
2023-05-23T17:10:06.427Z,37.95
2023-05-23T17:12:33.425Z,38.57
2023-05-23T17:15:00.437Z,38.61
2023-05-23T17:17:27.488Z,37.76
2023-05-23T17:19:54.943Z,37.40
2023-05-23T17:22:22.235Z,37.43
2023-05-23T17:24:49.212Z,37.55
2023-05-23T17:27:16.203Z,37.75
2023-05-23T17:29:43.221Z,37.60
2023-05-23T17:32:10.270Z,37.77
2023-05-23T17:34:37.310Z,37.45
2023-05-23T17:37:04.557Z,37.03
2023-05-23T17:39:31.571Z,37.31
2023-05-23T17:41:58.555Z,37.39
2023-05-23T17:44:25.594Z,37.37
2023-05-23T17:46:52.729Z,37.60
2023-05-23T17:49:19.795Z,37.46
2023-05-23T17:51:47.332Z,37.19
2023-05-23T17:54:14.315Z,37.51
2023-05-23T17:56:43.107Z,37.67
2023-05-23T17:59:10.260Z,37.55
2023-05-23T18:01:37.306Z,37.64
2023-05-23T18:04:04.420Z,37.68
2023-05-23T18:06:31.895Z,37.80
2023-05-23T18:08:58.930Z,37.54
2023-05-23T18:11:27.536Z,37.87
2023-05-23T18:13:54.652Z,37.83
2023-05-23T18:16:22.108Z,37.95
2023-05-23T18:18:49.186Z,38.13
2023-05-23T18:21:18.099Z,38.58
2023-05-23T18:23:45.322Z,37.66
2023-05-23T18:26:12.357Z,38.16
2023-05-23T18:28:39.430Z,38.27
2023-05-23T18:31:06.436Z,38.77
2023-05-23T18:33:33.528Z,38.30
2023-05-23T18:36:01.431Z,39.37
2023-05-23T18:38:28.468Z,39.05
2023-05-23T18:40:56.295Z,39.06
2023-05-23T18:43:23.340Z,39.24
2023-05-23T18:45:50.374Z,39.30
2023-05-23T18:48:17.420Z,39.93
2023-05-23T18:50:44.611Z,38.94
2023-05-23T18:53:12.024Z,38.96
2023-05-23T18:55:39.040Z,39.21
2023-05-23T18:58:06.214Z,40.09
2023-05-23T19:00:33.480Z,39.64
2023-05-23T19:03:00.641Z,40.12
2023-05-23T19:05:29.238Z,40.56
2023-05-23T19:07:56.289Z,40.33
2023-05-23T19:10:23.332Z,40.20
2023-05-23T19:12:50.405Z,40.20
2023-05-23T19:15:17.442Z,39.94
2023-05-23T19:17:44.454Z,39.74
2023-05-23T19:20:12.860Z,40.38
2023-05-23T19:22:50.903Z,40.49
2023-05-23T19:25:20.067Z,40.01
2023-05-23T19:27:47.182Z,40.32
2023-05-23T19:30:14.310Z,40.01
2023-05-23T19:32:41.979Z,40.00
2023-05-23T19:35:09.437Z,40.28
2023-05-23T19:37:36.850Z,40.20
2023-05-23T19:40:04.441Z,40.83
2023-05-23T19:42:32.033Z,40.80
2023-05-23T19:44:59.177Z,40.74
2023-05-23T19:47:27.088Z,40.68
2023-05-23T19:49:54.928Z,40.90
2023-05-23T19:52:21.961Z,40.79
2023-05-23T19:54:49.033Z,40.56
2023-05-23T19:57:16.369Z,41.81
2023-05-23T19:59:43.418Z,40.75
2023-05-23T20:02:10.418Z,40.48
2023-05-23T20:04:38.551Z,41.30
2023-05-23T20:07:06.472Z,41.00
2023-05-23T20:09:33.465Z,41.16
2023-05-23T20:12:00.632Z,41.16
2023-05-23T20:14:29.378Z,40.75
2023-05-23T20:16:56.658Z,40.89
2023-05-23T20:19:23.766Z,40.93
2023-05-23T20:21:50.821Z,41.20
2023-05-23T20:24:17.905Z,41.39
2023-05-23T20:26:45.959Z,41.49
2023-05-23T20:29:12.954Z,41.46
2023-05-23T20:31:39.961Z,41.10
2023-05-23T20:34:06.988Z,41.57
2023-05-23T20:36:33.997Z,42.02
2023-05-23T20:39:01.497Z,41.05
2023-05-23T20:41:29.611Z,41.41
2023-05-23T20:43:56.876Z,41.20
2023-05-23T20:46:24.027Z,41.37
2023-05-23T20:48:51.415Z,41.29
2023-05-23T20:51:18.564Z,41.63
2023-05-23T20:53:45.622Z,41.87
2023-05-23T20:56:12.768Z,41.44
2023-05-23T20:58:40.742Z,41.44
2023-05-23T21:01:08.054Z,41.78
2023-05-23T21:03:35.131Z,41.33
2023-05-23T21:06:02.184Z,41.42
2023-05-23T21:08:29.158Z,41.72
2023-05-23T21:10:56.375Z,41.56
2023-05-23T21:13:23.640Z,41.60
2023-05-23T21:15:50.987Z,41.37
2023-05-23T21:18:17.986Z,41.87
2023-05-23T21:20:45.147Z,41.98
2023-05-23T21:23:12.344Z,41.88
2023-05-23T21:25:39.437Z,41.96
2023-05-23T21:28:06.433Z,41.77
2023-05-23T21:30:33.480Z,41.93
2023-05-23T21:33:00.928Z,42.22
2023-05-23T21:35:27.990Z,41.93
2023-05-23T21:37:55.040Z,41.58
2023-05-23T21:40:22.050Z,42.30
2023-05-23T21:42:49.062Z,42.07
2023-05-23T21:45:16.168Z,42.04
2023-05-23T21:47:43.218Z,42.09
2023-05-23T21:50:10.913Z,42.37
2023-05-23T21:52:37.992Z,42.05
2023-05-23T21:55:05.358Z,41.90
2023-05-23T21:57:32.439Z,42.32
2023-05-23T21:59:59.462Z,42.19
2023-05-23T22:02:26.664Z,42.26
2023-05-23T22:04:53.927Z,41.94
2023-05-23T22:07:25.072Z,41.91
2023-05-23T22:09:53.371Z,42.37
2023-05-23T22:12:20.467Z,42.01
2023-05-23T22:14:47.485Z,42.66
2023-05-23T22:17:14.555Z,42.34
2023-05-23T22:19:41.773Z,42.44
2023-05-23T22:22:09.749Z,42.35
2023-05-23T22:24:36.736Z,42.58
2023-05-23T22:27:04.126Z,42.55
2023-05-23T22:29:31.151Z,42.56
2023-05-23T22:31:58.248Z,42.63
2023-05-23T22:34:25.345Z,42.74
2023-05-23T22:36:52.318Z,42.66
2023-05-23T22:39:19.346Z,42.21
2023-05-23T22:41:46.718Z,42.76
2023-05-23T22:44:13.720Z,42.59
2023-05-23T22:46:43.412Z,42.60
2023-05-23T22:49:10.483Z,42.41
2023-05-23T22:51:37.531Z,42.21
2023-05-23T22:54:04.536Z,42.54
2023-05-23T22:56:31.518Z,42.29
2023-05-23T22:58:58.541Z,42.62
2023-05-23T23:01:25.768Z,42.56
2023-05-23T23:03:52.881Z,42.46
2023-05-23T23:06:20.969Z,42.37
2023-05-23T23:08:48.079Z,42.44
2023-05-23T23:11:15.152Z,42.95
2023-05-23T23:13:42.172Z,42.71
2023-05-23T23:16:09.305Z,42.61
2023-05-23T23:18:36.310Z,42.73
2023-05-23T23:21:03.505Z,42.43
2023-05-23T23:23:30.821Z,42.88
2023-05-23T23:25:59.358Z,42.51
2023-05-23T23:28:26.482Z,42.82
2023-05-23T23:30:53.524Z,42.68
2023-05-23T23:33:20.667Z,42.71
2023-05-23T23:35:48.988Z,42.66
2023-05-23T23:38:16.462Z,42.52
2023-05-23T23:40:45.361Z,42.96
2023-05-23T23:43:15.554Z,43.05
2023-05-23T23:45:43.284Z,43.37
2023-05-23T23:48:10.518Z,43.01
2023-05-23T23:50:37.596Z,42.71
2023-05-23T23:53:04.650Z,43.13
2023-05-23T23:55:31.653Z,43.06
2023-05-23T23:57:58.656Z,43.59
